PWSweather.com
Personal Weather Stations
Station Observations
KNYSYRAC2
Fairmount Hills, Fairmount, NY 13219

Fairmount HillsFairmount, NY 13219

Lat: 43.03602, Lon: -76.247151

Elevation: 663

Station Type: Ambient Weather WS-2080

http://weather.cerchia.com

High Low Average
Temperature 85.4°F29.7°F 65.2°F18.4°F 73.4°F23.0°F
Dew Point 55.8°F13.2°F 35.8°F2.1°F 46.8°F8.2°F
Winds 7.0 mph SW11.3 mph SW Calm Calm 3.8 mph 6.1 mph
Wind Gusts 17.1 mph27.5 mph -- 10.2 mph16.4 mph
Humidity 62% 32% 39%
Pressure 30.06 in1017.90 in 29.98 in1015.20 in -
Precipitation 0.00 in0.00 in - -
Hour Temp Dew Point Humidity Winds Wind Gusts Pressure Precip Precip Rate Daily Precip Total
12:00 AM 67.0°F19.4°C 36.9°F2.7°C 33% 4.6 mph SW7.4 kmh SW 10.3 mph16.6 kmh 29.98 in1015.2 mb 0.00 in0.0 mm 0.00 in0.0 mm 0.00 in0.0 mm
12:15 AM 66.8°F19.3°C 37.5°F3.1°C 34% 6.4 mph WSW10.3 kmh WSW 12.3 mph19.8 kmh 29.98 in1015.2 mb 0.00 in0.0 mm 0.00 in0.0 mm 0.00 in0.0 mm
12:30 AM 66.8°F19.3°C 37.5°F3.1°C 34% 5.6 mph SW9.0 kmh SW 13.4 mph21.6 kmh 29.98 in1015.2 mb 0.00 in0.0 mm 0.00 in0.0 mm 0.00 in0.0 mm
12:45 AM 66.6°F19.2°C 36.6°F2.6°C 33% 6.4 mph WSW10.3 kmh WSW 15.1 mph24.3 kmh 29.98 in1015.2 mb 0.00 in0.0 mm 0.00 in0.0 mm 0.00 in0.0 mm
01:00 AM 66.5°F19.2°C 36.5°F2.5°C 33% 4.4 mph WSW7.1 kmh WSW 11.5 mph18.5 kmh 29.98 in1015.2 mb 0.00 in0.0 mm 0.00 in0.0 mm 0.00 in0.0 mm
01:15 AM 65.7°F18.7°C 35.8°F2.1°C 33% 5.0 mph WSW8.0 kmh WSW 12.3 mph19.8 kmh 29.98 in1015.2 mb 0.00 in0.0 mm 0.00 in0.0 mm 0.00 in0.0 mm
01:30 AM 65.7°F18.7°C 35.8°F2.1°C 33% 5.3 mph WSW8.5 kmh WSW 12.3 mph19.8 kmh 29.98 in1015.2 mb 0.00 in0.0 mm 0.00 in0.0 mm 0.00 in0.0 mm
01:45 AM 65.7°F18.7°C 35.8°F2.1°C 33% 3.8 mph WSW6.1 kmh WSW 11.5 mph18.5 kmh 29.98 in1015.2 mb 0.00 in0.0 mm 0.00 in0.0 mm 0.00 in0.0 mm
02:00 AM 65.7°F18.7°C 35.8°F2.1°C 33% 3.7 mph SW6.0 kmh SW 9.5 mph15.3 kmh 29.99 in1015.6 mb 0.00 in0.0 mm 0.00 in0.0 mm 0.00 in0.0 mm
02:15 AM 65.7°F18.7°C 36.6°F2.6°C 34% 5.4 mph SW8.7 kmh SW 15.1 mph24.3 kmh 29.98 in1015.2 mb 0.00 in0.0 mm 0.00 in0.0 mm 0.00 in0.0 mm
02:30 AM 65.9°F18.8°C 36.7°F2.6°C 34% 5.4 mph WSW8.7 kmh WSW 14.3 mph23.0 kmh 29.98 in1015.2 mb 0.00 in0.0 mm 0.00 in0.0 mm 0.00 in0.0 mm
02:45 AM 66.3°F19.1°C 37.1°F2.8°C 34% 6.0 mph SW9.7 kmh SW 15.1 mph24.3 kmh 29.98 in1015.2 mb 0.00 in0.0 mm 0.00 in0.0 mm 0.00 in0.0 mm
03:00 AM 66.1°F18.9°C 36.9°F2.7°C 34% 5.0 mph WNW8.0 kmh WNW 11.5 mph18.5 kmh 29.98 in1015.2 mb 0.00 in0.0 mm 0.00 in0.0 mm 0.00 in0.0 mm
03:15 AM 66.1°F18.9°C 36.9°F2.7°C 34% 6.1 mph SSW9.8 kmh SSW 13.4 mph21.6 kmh 29.99 in1015.6 mb 0.00 in0.0 mm 0.00 in0.0 mm 0.00 in0.0 mm
03:30 AM 66.3°F19.1°C 37.1°F2.8°C 34% 5.6 mph WSW9.0 kmh WSW 13.4 mph21.6 kmh 29.98 in1015.2 mb 0.00 in0.0 mm 0.00 in0.0 mm 0.00 in0.0 mm
03:45 AM 66.3°F19.1°C 37.1°F2.8°C 34% 6.1 mph SW9.8 kmh SW 15.1 mph24.3 kmh 29.99 in1015.6 mb 0.00 in0.0 mm 0.00 in0.0 mm 0.00 in0.0 mm
04:00 AM 66.5°F19.2°C 37.2°F2.9°C 34% 7.0 mph SW11.3 kmh SW 17.1 mph27.5 kmh 29.99 in1015.6 mb 0.00 in0.0 mm 0.00 in0.0 mm 0.00 in0.0 mm
04:15 AM 66.3°F19.1°C 37.1°F2.8°C 34% 4.8 mph SSW7.7 kmh SSW 11.5 mph18.5 kmh 29.99 in1015.6 mb 0.00 in0.0 mm 0.00 in0.0 mm 0.00 in0.0 mm
04:30 AM 65.9°F18.8°C 36.7°F2.6°C 34% 4.8 mph WSW7.7 kmh WSW 13.4 mph21.6 kmh 29.99 in1015.6 mb 0.00 in0.0 mm 0.00 in0.0 mm 0.00 in0.0 mm
04:45 AM 65.7°F18.7°C 37.3°F2.9°C 35% 3.9 mph SSW6.3 kmh SSW 12.3 mph19.8 kmh 29.99 in1015.6 mb 0.00 in0.0 mm 0.00 in0.0 mm 0.00 in0.0 mm
05:00 AM 65.2°F18.4°C 36.8°F2.7°C 35% 3.4 mph WSW5.5 kmh WSW 12.3 mph19.8 kmh 30.00 in1015.9 mb 0.00 in0.0 mm 0.00 in0.0 mm 0.00 in0.0 mm
05:15 AM 65.2°F18.4°C 36.8°F2.7°C 35% 5.5 mph SW8.9 kmh SW 14.3 mph23.0 kmh 30.01 in1016.3 mb 0.00 in0.0 mm 0.00 in0.0 mm 0.00 in0.0 mm
05:30 AM 65.6°F18.7°C 37.2°F2.9°C 35% 3.8 mph WSW6.1 kmh WSW 8.7 mph14.0 kmh 30.01 in1016.3 mb 0.00 in0.0 mm 0.00 in0.0 mm 0.00 in0.0 mm
05:45 AM 65.2°F18.4°C 37.6°F3.1°C 36% 3.6 mph SW5.8 kmh SW 10.3 mph16.6 kmh 30.01 in1016.3 mb 0.00 in0.0 mm 0.00 in0.0 mm 0.00 in0.0 mm
06:00 AM 65.2°F18.4°C 38.3°F3.5°C 37% 3.7 mph WSW6.0 kmh WSW 15.1 mph24.3 kmh 30.02 in1016.6 mb 0.00 in0.0 mm 0.00 in0.0 mm 0.00 in0.0 mm
06:15 AM 65.2°F18.4°C 38.3°F3.5°C 37% 2.9 mph WSW4.7 kmh WSW 9.5 mph15.3 kmh 30.02 in1016.6 mb 0.00 in0.0 mm 0.00 in0.0 mm 0.00 in0.0 mm
06:30 AM 66.1°F18.9°C 39.1°F3.9°C 37% 4.3 mph SW6.9 kmh SW 11.5 mph18.5 kmh 30.02 in1016.6 mb 0.00 in0.0 mm 0.00 in0.0 mm 0.00 in0.0 mm
06:45 AM 66.6°F19.2°C 40.2°F4.6°C 38% 1.8 mph WSW2.9 kmh WSW 5.6 mph9.0 kmh 30.02 in1016.6 mb 0.00 in0.0 mm 0.00 in0.0 mm 0.00 in0.0 mm
07:00 AM 66.8°F19.3°C 42.3°F5.7°C 41% 1.8 mph NNW2.9 kmh NNW 7.5 mph12.1 kmh 30.02 in1016.6 mb 0.00 in0.0 mm 0.00 in0.0 mm 0.00 in0.0 mm
07:15 AM 65.7°F18.7°C 43.8°F6.6°C 45% 0.9 mph NE1.4 kmh NE 3.9 mph6.3 kmh 30.02 in1016.6 mb 0.00 in0.0 mm 0.00 in0.0 mm 0.00 in0.0 mm
07:30 AM 66.3°F19.1°C 43.1°F6.2°C 43% 3.0 mph SW4.8 kmh SW 13.4 mph21.6 kmh 30.02 in1016.6 mb 0.00 in0.0 mm 0.00 in0.0 mm 0.00 in0.0 mm
07:45 AM 68.8°F20.4°C 41.5°F5.3°C 37% 4.4 mph W7.1 kmh W 14.3 mph23.0 kmh 30.03 in1016.9 mb 0.00 in0.0 mm 0.00 in0.0 mm 0.00 in0.0 mm
08:00 AM 70.1°F21.2°C 41.1°F5.1°C 35% 4.6 mph SW7.4 kmh SW 10.3 mph16.6 kmh 30.03 in1016.9 mb 0.00 in0.0 mm 0.00 in0.0 mm 0.00 in0.0 mm
08:15 AM 70.6°F21.4°C 40.9°F4.9°C 34% 4.7 mph SW7.6 kmh SW 14.3 mph23.0 kmh 30.03 in1016.9 mb 0.00 in0.0 mm 0.00 in0.0 mm 0.00 in0.0 mm
08:30 AM 71.5°F21.9°C 41.6°F5.3°C 34% 5.3 mph W8.5 kmh W 13.4 mph21.6 kmh 30.03 in1016.9 mb 0.00 in0.0 mm 0.00 in0.0 mm 0.00 in0.0 mm
08:45 AM 72.2°F22.3°C 42.3°F5.7°C 34% 4.4 mph WNW7.1 kmh WNW 11.5 mph18.5 kmh 30.03 in1016.9 mb 0.00 in0.0 mm 0.00 in0.0 mm 0.00 in0.0 mm
09:00 AM 72.8°F22.7°C 43.5°F6.4°C 35% 5.4 mph WNW8.7 kmh WNW 16.2 mph26.1 kmh 30.03 in1016.9 mb 0.00 in0.0 mm 0.00 in0.0 mm 0.00 in0.0 mm
09:15 AM 73.3°F22.9°C 44.7°F7.1°C 36% 4.5 mph WSW7.2 kmh WSW 11.5 mph18.5 kmh 30.03 in1016.9 mb 0.00 in0.0 mm 0.00 in0.0 mm 0.00 in0.0 mm
09:30 AM 73.8°F23.2°C 45.2°F7.3°C 36% 6.0 mph WNW9.7 kmh WNW 13.4 mph21.6 kmh 30.04 in1017.3 mb 0.00 in0.0 mm 0.00 in0.0 mm 0.00 in0.0 mm
09:45 AM 74.4°F23.6°C 44.9°F7.2°C 35% 6.3 mph WSW10.1 kmh WSW 16.2 mph26.1 kmh 30.04 in1017.3 mb 0.00 in0.0 mm 0.00 in0.0 mm 0.00 in0.0 mm
10:00 AM 75.1°F23.9°C 45.6°F7.6°C 35% 6.8 mph NW10.9 kmh NW 13.4 mph21.6 kmh 30.03 in1016.9 mb 0.00 in0.0 mm 0.00 in0.0 mm 0.00 in0.0 mm
10:15 AM 76.0°F24.4°C 46.4°F8.0°C 35% 6.5 mph W10.5 kmh W 14.3 mph23.0 kmh 30.04 in1017.3 mb 0.00 in0.0 mm 0.00 in0.0 mm 0.00 in0.0 mm
10:30 AM 76.7°F24.8°C 46.2°F7.9°C 34% 5.9 mph WNW9.5 kmh WNW 15.1 mph24.3 kmh 30.03 in1016.9 mb 0.00 in0.0 mm 0.00 in0.0 mm 0.00 in0.0 mm
10:45 AM 77.3°F25.2°C 47.5°F8.6°C 35% 5.8 mph WSW9.3 kmh WSW 13.4 mph21.6 kmh 30.03 in1016.9 mb 0.00 in0.0 mm 0.00 in0.0 mm 0.00 in0.0 mm
11:00 AM 77.8°F25.4°C 47.9°F8.8°C 35% 2.9 mph WNW4.7 kmh WNW 8.7 mph14.0 kmh 30.03 in1016.9 mb 0.00 in0.0 mm 0.00 in0.0 mm 0.00 in0.0 mm
11:15 AM 78.5°F25.8°C 47.8°F8.8°C 34% 4.8 mph WNW7.7 kmh WNW 11.5 mph18.5 kmh 30.03 in1016.9 mb 0.00 in0.0 mm 0.00 in0.0 mm 0.00 in0.0 mm
11:30 AM 79.1°F26.2°C 47.5°F8.6°C 33% 5.0 mph WNW8.0 kmh WNW 13.4 mph21.6 kmh 30.03 in1016.9 mb 0.00 in0.0 mm 0.00 in0.0 mm 0.00 in0.0 mm
11:45 AM 80.7°F27.1°C 48.9°F9.4°C 33% 5.0 mph NW8.0 kmh NW 11.5 mph18.5 kmh 30.03 in1016.9 mb 0.00 in0.0 mm 0.00 in0.0 mm 0.00 in0.0 mm
12:00 PM 81.4°F27.4°C 51.1°F10.6°C 35% 3.0 mph NW4.8 kmh NW 11.5 mph18.5 kmh 30.03 in1016.9 mb 0.00 in0.0 mm 0.00 in0.0 mm 0.00 in0.0 mm
12:15 PM 80.5°F26.9°C 47.9°F8.8°C 32% 4.9 mph W7.9 kmh W 15.1 mph24.3 kmh 30.03 in1016.9 mb 0.00 in0.0 mm 0.00 in0.0 mm 0.00 in0.0 mm
12:30 PM 80.5°F26.9°C 49.5°F9.7°C 34% 4.4 mph WNW7.1 kmh WNW 11.5 mph18.5 kmh 30.04 in1017.3 mb 0.00 in0.0 mm 0.00 in0.0 mm 0.00 in0.0 mm
12:45 PM 79.8°F26.6°C 49.7°F9.8°C 35% 5.2 mph W8.4 kmh W 14.3 mph23.0 kmh 30.05 in1017.6 mb 0.00 in0.0 mm 0.00 in0.0 mm 0.00 in0.0 mm
01:00 PM 78.5°F25.8°C 49.3°F9.6°C 36% 4.1 mph N6.6 kmh N 12.3 mph19.8 kmh 30.04 in1017.3 mb 0.00 in0.0 mm 0.00 in0.0 mm 0.00 in0.0 mm
01:15 PM 78.2°F25.7°C 49.8°F9.9°C 37% 2.9 mph NW4.7 kmh NW 8.7 mph14.0 kmh 30.04 in1017.3 mb 0.00 in0.0 mm 0.00 in0.0 mm 0.00 in0.0 mm
01:30 PM 78.0°F25.6°C 51.7°F10.9°C 40% 2.6 mph SW4.2 kmh SW 9.5 mph15.3 kmh 30.04 in1017.3 mb 0.00 in0.0 mm 0.00 in0.0 mm 0.00 in0.0 mm
01:45 PM 78.5°F25.8°C 52.2°F11.2°C 40% 2.0 mph WNW3.2 kmh WNW 5.6 mph9.0 kmh 30.04 in1017.3 mb 0.00 in0.0 mm 0.00 in0.0 mm 0.00 in0.0 mm
02:00 PM 79.2°F26.2°C 52.1°F11.2°C 39% 3.0 mph NW4.8 kmh NW 8.7 mph14.0 kmh 30.04 in1017.3 mb 0.00 in0.0 mm 0.00 in0.0 mm 0.00 in0.0 mm
02:15 PM 81.0°F27.2°C 52.3°F11.3°C 37% 3.6 mph WNW5.8 kmh WNW 10.3 mph16.6 kmh 30.04 in1017.3 mb 0.00 in0.0 mm 0.00 in0.0 mm 0.00 in0.0 mm
02:30 PM 82.1°F27.8°C 52.5°F11.4°C 36% 4.5 mph W7.2 kmh W 12.3 mph19.8 kmh 30.04 in1017.3 mb 0.00 in0.0 mm 0.00 in0.0 mm 0.00 in0.0 mm
02:45 PM 81.4°F27.4°C 52.6°F11.4°C 37% 5.2 mph NW8.4 kmh NW 11.5 mph18.5 kmh 30.04 in1017.3 mb 0.00 in0.0 mm 0.00 in0.0 mm 0.00 in0.0 mm
03:00 PM 81.4°F27.4°C 52.6°F11.4°C 37% 4.6 mph NNW7.4 kmh NNW 13.4 mph21.6 kmh 30.04 in1017.3 mb 0.00 in0.0 mm 0.00 in0.0 mm 0.00 in0.0 mm
03:15 PM 81.9°F27.7°C 53.1°F11.7°C 37% 3.8 mph NW6.1 kmh NW 9.5 mph15.3 kmh 30.03 in1016.9 mb 0.00 in0.0 mm 0.00 in0.0 mm 0.00 in0.0 mm
03:30 PM 84.5°F29.2°C 54.6°F12.6°C 36% 4.9 mph NNE7.9 kmh NNE 11.5 mph18.5 kmh 30.03 in1016.9 mb 0.00 in0.0 mm 0.00 in0.0 mm 0.00 in0.0 mm
03:45 PM 83.7°F28.7°C 53.9°F12.2°C 36% 3.6 mph N5.8 kmh N 9.5 mph15.3 kmh 30.03 in1016.9 mb 0.00 in0.0 mm 0.00 in0.0 mm 0.00 in0.0 mm
04:00 PM 82.1°F27.8°C 54.0°F12.2°C 38% 3.6 mph NNE5.8 kmh NNE 7.5 mph12.1 kmh 30.02 in1016.6 mb 0.00 in0.0 mm 0.00 in0.0 mm 0.00 in0.0 mm
04:15 PM 83.0°F28.3°C 54.8°F12.7°C 38% 3.4 mph NNE5.5 kmh NNE 8.7 mph14.0 kmh 30.02 in1016.6 mb 0.00 in0.0 mm 0.00 in0.0 mm 0.00 in0.0 mm
04:30 PM 85.4°F29.7°C 54.6°F12.6°C 35% 4.1 mph NNW6.6 kmh NNW 13.4 mph21.6 kmh 30.02 in1016.6 mb 0.00 in0.0 mm 0.00 in0.0 mm 0.00 in0.0 mm
04:45 PM 85.2°F29.6°C 54.4°F12.4°C 35% 5.8 mph N9.3 kmh N 16.2 mph26.1 kmh 30.02 in1016.6 mb 0.00 in0.0 mm 0.00 in0.0 mm 0.00 in0.0 mm
05:00 PM 85.4°F29.7°C 54.6°F12.6°C 35% 3.7 mph NE6.0 kmh NE 12.3 mph19.8 kmh 30.02 in1016.6 mb 0.00 in0.0 mm 0.00 in0.0 mm 0.00 in0.0 mm
05:15 PM 84.5°F29.2°C 55.3°F12.9°C 37% 5.2 mph NNW8.4 kmh NNW 14.3 mph23.0 kmh 30.03 in1016.9 mb 0.00 in0.0 mm 0.00 in0.0 mm 0.00 in0.0 mm
05:30 PM 83.0°F28.3°C 55.5°F13.1°C 39% 6.6 mph NNE10.6 kmh NNE 15.1 mph24.3 kmh 30.03 in1016.9 mb 0.00 in0.0 mm 0.00 in0.0 mm 0.00 in0.0 mm
05:45 PM 82.5°F28.1°C 55.0°F12.8°C 39% 4.4 mph N7.1 kmh N 12.3 mph19.8 kmh 30.03 in1016.9 mb 0.00 in0.0 mm 0.00 in0.0 mm 0.00 in0.0 mm
06:00 PM 82.5°F28.1°C 54.3°F12.4°C 38% 4.5 mph NNW7.2 kmh NNW 11.5 mph18.5 kmh 30.04 in1017.3 mb 0.00 in0.0 mm 0.00 in0.0 mm 0.00 in0.0 mm
06:15 PM 81.2°F27.3°C 52.5°F11.4°C 37% 3.8 mph NNE6.1 kmh NNE 9.5 mph15.3 kmh 30.04 in1017.3 mb 0.00 in0.0 mm 0.00 in0.0 mm 0.00 in0.0 mm
06:30 PM 79.4°F26.3°C 53.7°F12.1°C 41% 2.2 mph NE3.5 kmh NE 5.6 mph9.0 kmh 30.04 in1017.3 mb 0.00 in0.0 mm 0.00 in0.0 mm 0.00 in0.0 mm
06:45 PM 78.5°F25.8°C 52.9°F11.6°C 41% 2.0 mph NNE3.2 kmh NNE 7.5 mph12.1 kmh 30.04 in1017.3 mb 0.00 in0.0 mm 0.00 in0.0 mm 0.00 in0.0 mm
07:00 PM 78.0°F25.6°C 52.4°F11.3°C 41% 1.7 mph N2.7 kmh N 4.8 mph7.7 kmh 30.04 in1017.3 mb 0.00 in0.0 mm 0.00 in0.0 mm 0.00 in0.0 mm
07:15 PM 77.8°F25.4°C 52.2°F11.2°C 41% 1.4 mph NE2.3 kmh NE 5.6 mph9.0 kmh 30.04 in1017.3 mb 0.00 in0.0 mm 0.00 in0.0 mm 0.00 in0.0 mm
07:30 PM 77.3°F25.2°C 53.0°F11.7°C 43% 0.7 mph WSW1.1 kmh WSW 3.9 mph6.3 kmh 30.04 in1017.3 mb 0.00 in0.0 mm 0.00 in0.0 mm 0.00 in0.0 mm
07:45 PM 77.3°F25.2°C 53.0°F11.7°C 43% 0.1 mph ESE0.2 kmh ESE 2.8 mph4.5 kmh 30.04 in1017.3 mb 0.00 in0.0 mm 0.00 in0.0 mm 0.00 in0.0 mm
08:00 PM 76.7°F24.8°C 53.8°F12.1°C 45% Calm Calm 2.0 mph3.2 kmh 30.04 in1017.3 mb 0.00 in0.0 mm 0.00 in0.0 mm 0.00 in0.0 mm
08:15 PM 74.9°F23.8°C 53.9°F12.2°C 48% Calm Calm -- 30.04 in1017.3 mb 0.00 in0.0 mm 0.00 in0.0 mm 0.00 in0.0 mm
08:30 PM 73.3°F22.9°C 53.0°F11.7°C 49% 1.0 mph SSW1.6 kmh SSW 2.8 mph4.5 kmh 30.04 in1017.3 mb 0.00 in0.0 mm 0.00 in0.0 mm 0.00 in0.0 mm
08:45 PM 72.4°F22.4°C 53.2°F11.8°C 51% 1.2 mph S1.9 kmh S 5.6 mph9.0 kmh 30.05 in1017.6 mb 0.00 in0.0 mm 0.00 in0.0 mm 0.00 in0.0 mm
09:00 PM 72.2°F22.3°C 53.6°F12.0°C 52% 2.4 mph SW3.9 kmh SW 5.6 mph9.0 kmh 30.05 in1017.6 mb 0.00 in0.0 mm 0.00 in0.0 mm 0.00 in0.0 mm
09:15 PM 72.0°F22.2°C 55.0°F12.8°C 55% 1.1 mph S1.8 kmh S 3.9 mph6.3 kmh 30.05 in1017.6 mb 0.00 in0.0 mm 0.00 in0.0 mm 0.00 in0.0 mm
09:30 PM 70.8°F21.6°C 54.3°F12.4°C 56% 1.1 mph S1.8 kmh S 3.9 mph6.3 kmh 30.05 in1017.6 mb 0.00 in0.0 mm 0.00 in0.0 mm 0.00 in0.0 mm
09:45 PM 70.2°F21.2°C 54.8°F12.7°C 58% 0.7 mph S1.1 kmh S 2.8 mph4.5 kmh 30.05 in1017.6 mb 0.00 in0.0 mm 0.00 in0.0 mm 0.00 in0.0 mm
10:00 PM 69.9°F21.1°C 55.8°F13.2°C 61% 0.6 mph SE1.0 kmh SE 2.8 mph4.5 kmh 30.05 in1017.6 mb 0.00 in0.0 mm 0.00 in0.0 mm 0.00 in0.0 mm
10:15 PM 69.3°F20.7°C 55.8°F13.2°C 62% 0.4 mph ESE0.6 kmh ESE 2.8 mph4.5 kmh 30.06 in1017.9 mb 0.00 in0.0 mm 0.00 in0.0 mm 0.00 in0.0 mm
10:30 PM 68.8°F20.4°C 55.2°F12.9°C 62% 0.8 mph SE1.3 kmh SE 2.0 mph3.2 kmh 30.06 in1017.9 mb 0.00 in0.0 mm 0.00 in0.0 mm 0.00 in0.0 mm
10:45 PM 69.2°F20.7°C 55.6°F13.1°C 62% 0.6 mph SE1.0 kmh SE 4.8 mph7.7 kmh 30.06 in1017.9 mb 0.00 in0.0 mm 0.00 in0.0 mm 0.00 in0.0 mm
11:00 PM 69.2°F20.7°C 55.1°F12.8°C 61% 1.0 mph S1.6 kmh S 4.8 mph7.7 kmh 30.05 in1017.6 mb 0.00 in0.0 mm 0.00 in0.0 mm 0.00 in0.0 mm
11:15 PM 69.5°F20.8°C 55.5°F13.1°C 61% 1.2 mph SW1.9 kmh SW 4.8 mph7.7 kmh 30.04 in1017.3 mb 0.00 in0.0 mm 0.00 in0.0 mm 0.00 in0.0 mm
11:30 PM 69.3°F20.7°C 54.9°F12.7°C 60% 1.6 mph SW2.6 kmh SW 4.8 mph7.7 kmh 30.04 in1017.3 mb 0.00 in0.0 mm 0.00 in0.0 mm 0.00 in0.0 mm
11:45 PM 70.2°F21.2°C 54.8°F12.7°C 58% 2.7 mph SW4.3 kmh SW 5.6 mph9.0 kmh 30.04 in1017.3 mb 0.00 in0.0 mm 0.00 in0.0 mm 0.00 in0.0 mm